Terminal Aerodrome Forecast
Issued by NWS Columbia, SC

Home | Current Version | Previous Version | Text Only | Print | Product List | Glossary On
Versions: 1 2 3 4 5 6 7 8 9 10 11 12 13 14 15 16 17 18 19 20 21 22 23 24 25 26 27 28 29
000
FTUS42 KCAE 260300 AAA
TAFCAE
TAF AMD
KCAE 260302Z 2603/2624 23004KT P6SM BKN120
     FM261100 24006KT P6SM BKN035
     FM261500 27012G20KT P6SM SCT035 BKN120
     FM261800 29015G25KT P6SM BKN120=

USA.gov is the U.S. government's official web portal to all federal, state and local government web resources and services.